Time;durP1;ratioP1;P1;durP2;ratioP2;P2;SDS_P1;SDS_P2;PMS_P1;PMS_P2;Temp;Humidity;BMP_temperature;BMP_pressure;BME280_temperature;BME280_humidity;BME280_pressure;Samples;Min_cycle;Max_cycle;Signal;HPM_P1;HPM_P2
2023/11/28 00:02:40;;;;;;;5.50;5.30;;;5.40;99.90;;;;;;10335127;28;20207;-79
2023/11/28 00:07:42;;;;;;;6.00;5.80;;;5.40;99.90;;;;;;10293311;28;20646;-79
2023/11/28 00:12:46;;;;;;;9.40;9.10;;;5.40;99.90;;;;;;10284359;28;20209;-79
2023/11/28 00:17:48;;;;;;;9.07;8.60;;;5.40;99.90;;;;;;10337218;28;20483;-79
2023/11/28 00:22:50;;;;;;;8.30;8.00;;;5.30;99.90;;;;;;10290583;28;20205;-79
2023/11/28 00:27:56;;;;;;;8.40;8.10;;;5.20;99.90;;;;;;10335120;28;20231;-79
2023/11/28 00:32:58;;;;;;;7.70;7.50;;;5.20;99.90;;;;;;10276991;28;20232;-79
2023/11/28 00:38:01;;;;;;;7.43;7.10;;;5.10;99.90;;;;;;10313316;28;20693;-79
2023/11/28 00:43:04;;;;;;;8.27;8.03;;;5.20;99.90;;;;;;10299007;28;20205;-79
2023/11/28 00:48:07;;;;;;;7.03;6.83;;;5.20;99.90;;;;;;10304577;28;20212;-79
2023/11/28 00:53:09;;;;;;;7.30;7.10;;;5.30;99.90;;;;;;10318746;28;20227;-79
2023/11/28 00:58:14;;;;;;;6.80;6.60;;;5.40;99.90;;;;;;10334083;28;20231;-79
2023/11/28 01:03:16;;;;;;;6.60;6.40;;;5.40;99.90;;;;;;10327486;28;20207;-79
2023/11/28 01:08:19;;;;;;;5.97;5.70;;;5.40;99.90;;;;;;10320746;28;20290;-79
2023/11/28 01:13:23;;;;;;;6.80;6.60;;;5.40;99.90;;;;;;10274604;28;20204;-79
2023/11/28 01:18:26;;;;;;;6.43;6.20;;;5.30;99.90;;;;;;10310620;28;20236;-79
2023/11/28 01:23:28;;;;;;;5.87;5.67;;;5.40;99.90;;;;;;10291797;28;20200;-79
2023/11/28 01:28:33;;;;;;;5.23;5.13;;;5.40;99.90;;;;;;10327834;28;20270;-79
2023/11/28 01:33:36;;;;;;;4.47;4.37;;;5.50;99.90;;;;;;10279982;28;20211;-79
2023/11/28 01:38:38;;;;;;;4.13;4.00;;;5.50;99.90;;;;;;10334755;28;20737;-79
2023/11/28 01:43:42;;;;;;;4.10;4.00;;;5.50;99.90;;;;;;10280918;28;20207;-79
2023/11/28 01:48:44;;;;;;;4.27;4.17;;;5.50;99.90;;;;;;10306037;28;20227;-79
2023/11/28 01:53:46;;;;;;;3.60;3.50;;;5.60;99.90;;;;;;10283691;28;20627;-79
2023/11/28 01:58:51;;;;;;;4.30;4.20;;;5.70;99.90;;;;;;10272770;28;20232;-79
2023/11/28 02:03:54;;;;;;;4.33;4.20;;;5.70;99.90;;;;;;10326665;28;20243;-79
2023/11/28 02:08:56;;;;;;;3.87;3.77;;;5.80;99.90;;;;;;10277912;28;20247;-79
2023/11/28 02:13:59;;;;;;;4.20;4.10;;;5.80;99.90;;;;;;10300001;28;20200;-79
2023/11/28 02:19:04;;;;;;;3.90;3.80;;;5.90;99.90;;;;;;10308219;28;20322;-79
2023/11/28 02:24:10;;;;;;;3.77;3.57;;;5.90;99.90;;;;;;10296469;28;20745;-79
2023/11/28 02:29:14;;;;;;;3.90;3.80;;;6.00;99.90;;;;;;10312468;28;20223;-79
2023/11/28 02:34:16;;;;;;;3.20;3.10;;;6.10;99.90;;;;;;10271405;28;20239;-78
2023/11/28 02:39:19;;;;;;;3.60;3.50;;;6.20;99.90;;;;;;10300239;28;20235;-79
2023/11/28 02:44:23;;;;;;;3.90;3.80;;;6.20;99.90;;;;;;10324726;28;20210;-79
2023/11/28 02:49:25;;;;;;;4.67;4.47;;;6.20;99.90;;;;;;10313670;28;20563;-81
2023/11/28 02:54:28;;;;;;;4.83;4.73;;;6.30;99.90;;;;;;10313348;28;20281;-79
2023/11/28 02:59:32;;;;;;;5.30;5.10;;;6.20;99.90;;;;;;10313344;28;20227;-79
2023/11/28 03:04:34;;;;;;;4.73;4.63;;;6.20;99.90;;;;;;10314950;28;20214;-79
2023/11/28 03:09:36;;;;;;;5.20;5.00;;;6.20;99.90;;;;;;10312854;23;20716;-78
2023/11/28 03:14:40;;;;;;;5.23;5.13;;;6.20;99.90;;;;;;10294715;28;20212;-79
2023/11/28 03:19:42;;;;;;;5.40;5.30;;;6.20;99.90;;;;;;10302151;28;20224;-79
2023/11/28 03:24:45;;;;;;;5.50;5.30;;;6.20;99.90;;;;;;10319984;28;20207;-78
2023/11/28 03:29:50;;;;;;;6.40;6.20;;;6.30;99.90;;;;;;10307528;28;20716;-78
2023/11/28 03:34:52;;;;;;;6.13;5.93;;;6.40;99.90;;;;;;10310284;28;20204;-79
2023/11/28 03:39:54;;;;;;;5.60;5.40;;;6.30;99.90;;;;;;10303277;28;20227;-78
2023/11/28 03:44:58;;;;;;;5.97;5.70;;;6.30;99.90;;;;;;10302995;28;20227;-79
2023/11/28 03:50:00;;;;;;;5.60;5.40;;;6.30;99.90;;;;;;10314007;28;20230;-79
2023/11/28 03:55:03;;;;;;;6.83;6.47;;;6.30;99.90;;;;;;10328511;28;20281;-79
2023/11/28 04:00:09;;;;;;;5.57;5.47;;;6.20;99.90;;;;;;10303499;28;20231;-78
2023/11/28 04:05:13;;;;;;;6.27;6.07;;;6.30;99.90;;;;;;10285441;28;20668;-79
2023/11/28 04:10:15;;;;;;;4.47;4.37;;;6.20;99.90;;;;;;10308957;28;20254;-79
2023/11/28 04:15:19;;;;;;;6.60;6.40;;;6.20;99.90;;;;;;10287379;28;20353;-79
2023/11/28 04:20:21;;;;;;;5.90;5.70;;;6.20;99.90;;;;;;10328540;28;20231;-78
2023/11/28 04:25:24;;;;;;;6.70;6.20;;;6.30;99.90;;;;;;10295957;28;20219;-78
2023/11/28 04:30:28;;;;;;;6.50;6.20;;;6.30;99.90;;;;;;10306496;28;20282;-78
2023/11/28 04:35:31;;;;;;;6.00;5.80;;;6.30;99.90;;;;;;10298374;28;20266;-79
2023/11/28 04:40:33;;;;;;;7.40;7.10;;;6.30;99.90;;;;;;10314454;28;20712;-79
2023/11/28 04:45:37;;;;;;;6.60;6.40;;;6.30;99.90;;;;;;10304668;28;20206;-78
2023/11/28 04:50:39;;;;;;;6.43;6.23;;;6.30;99.90;;;;;;10306597;28;20212;-78
2023/11/28 04:55:42;;;;;;;7.30;6.97;;;6.40;99.90;;;;;;10314070;28;20200;-79
2023/11/28 05:00:46;;;;;;;6.13;5.97;;;6.40;99.90;;;;;;10293743;28;20231;-77
2023/11/28 05:05:48;;;;;;;5.13;4.93;;;6.40;99.90;;;;;;10309623;28;20208;-78
2023/11/28 05:10:50;;;;;;;5.90;5.70;;;6.50;99.90;;;;;;10320329;28;20238;-79
2023/11/28 05:15:55;;;;;;;4.20;4.10;;;6.50;99.90;;;;;;10303301;28;20674;-78
2023/11/28 05:20:58;;;;;;;6.20;6.00;;;6.50;99.90;;;;;;10290263;28;20247;-77
2023/11/28 05:26:01;;;;;;;6.10;5.80;;;6.50;99.90;;;;;;10310148;28;20203;-78
2023/11/28 05:31:05;;;;;;;6.30;6.10;;;6.60;99.90;;;;;;10302550;28;20211;-78
2023/11/28 05:36:08;;;;;;;6.27;5.97;;;6.60;99.90;;;;;;10314775;28;20203;-79
2023/11/28 05:41:11;;;;;;;6.33;6.13;;;6.70;99.90;;;;;;10307732;28;20230;-79
2023/11/28 05:46:15;;;;;;;7.57;7.27;;;6.70;99.90;;;;;;10305931;28;20204;-79
2023/11/28 05:51:18;;;;;;;6.07;5.80;;;6.60;99.90;;;;;;10308480;28;20192;-79
2023/11/28 05:56:20;;;;;;;6.10;5.80;;;6.60;99.90;;;;;;10330593;28;20254;-79
2023/11/28 06:01:27;;;;;;;8.67;8.17;;;6.60;99.90;;;;;;10319206;28;20625;-78
2023/11/28 06:06:30;;;;;;;5.30;5.00;;;6.50;99.90;;;;;;10329400;28;20250;-79
2023/11/28 06:11:32;;;;;;;6.60;6.30;;;6.50;99.90;;;;;;10316572;28;20249;-79
2023/11/28 06:16:36;;;;;;;5.60;5.40;;;6.50;99.90;;;;;;10323069;28;20215;-77
2023/11/28 06:21:38;;;;;;;6.27;6.00;;;6.40;99.90;;;;;;10309556;28;20211;-78
2023/11/28 06:26:41;;;;;;;6.20;5.90;;;6.30;99.90;;;;;;10315142;28;20219;-77
2023/11/28 06:31:45;;;;;;;6.87;6.57;;;6.20;99.90;;;;;;10327961;28;20219;-78
2023/11/28 06:36:47;;;;;;;5.27;5.07;;;6.20;99.90;;;;;;10320035;28;20215;-78
2023/11/28 06:41:50;;;;;;;7.33;6.93;;;6.20;99.90;;;;;;10314636;28;20222;-78
2023/11/28 06:46:54;;;;;;;5.70;5.50;;;6.20;99.90;;;;;;10305380;28;20619;-78
2023/11/28 06:51:57;;;;;;;3.80;3.70;;;6.20;99.90;;;;;;10307392;28;20204;-78
2023/11/28 06:56:59;;;;;;;4.10;4.00;;;6.20;99.90;;;;;;10301548;28;20237;-76
2023/11/28 07:02:03;;;;;;;5.23;5.03;;;6.10;99.90;;;;;;10305836;28;20224;-78
2023/11/28 07:07:06;;;;;;;2.67;2.57;;;5.90;99.90;;;;;;10305346;28;20227;-78
2023/11/28 07:12:08;;;;;;;4.10;4.00;;;5.70;99.90;;;;;;10304261;28;20189;-77
2023/11/28 07:17:12;;;;;;;4.70;4.60;;;5.50;99.90;;;;;;10303782;28;20219;-76
2023/11/28 07:22:15;;;;;;;5.50;5.27;;;5.40;99.90;;;;;;10303587;28;20704;-78
2023/11/28 07:27:17;;;;;;;5.30;5.13;;;5.30;99.90;;;;;;10285204;28;20582;-77
2023/11/28 07:32:21;;;;;;;4.13;4.03;;;5.30;99.90;;;;;;10301306;28;20196;-77
2023/11/28 07:37:23;;;;;;;4.90;4.80;;;5.30;99.90;;;;;;10301841;28;20230;-77
2023/11/28 07:42:25;;;;;;;5.20;5.00;;;5.30;99.90;;;;;;10303339;28;20227;-77
2023/11/28 07:47:30;;;;;;;5.90;5.70;;;5.20;99.90;;;;;;10282136;28;20219;-78
2023/11/28 07:52:33;;;;;;;2.87;2.77;;;5.20;99.90;;;;;;10299262;28;20196;-77
2023/11/28 07:57:36;;;;;;;5.50;5.23;;;5.10;99.90;;;;;;10297555;28;20235;-77
2023/11/28 08:02:40;;;;;;;5.30;5.10;;;5.10;99.90;;;;;;10297627;28;20266;-77
2023/11/28 08:07:42;;;;;;;4.63;4.43;;;5.10;99.90;;;;;;10296884;28;20227;-77
2023/11/28 08:12:44;;;;;;;5.00;4.70;;;5.10;99.90;;;;;;10295760;28;20307;-77
2023/11/28 08:17:48;;;;;;;5.20;5.00;;;5.10;99.90;;;;;;10295260;28;20505;-77
2023/11/28 08:22:50;;;;;;;4.90;4.60;;;5.10;99.90;;;;;;10295083;28;20374;-77
2023/11/28 08:27:53;;;;;;;4.17;3.97;;;5.10;99.90;;;;;;10268237;28;20220;-77
2023/11/28 08:32:57;;;;;;;4.50;4.30;;;5.10;99.90;;;;;;10293110;28;20234;-77
2023/11/28 08:37:59;;;;;;;5.57;5.30;;;5.10;99.90;;;;;;10299671;28;20243;-77
2023/11/28 08:43:01;;;;;;;5.67;5.43;;;5.10;99.90;;;;;;10298761;28;20228;-77
2023/11/28 08:48:05;;;;;;;6.40;6.10;;;5.00;99.90;;;;;;10292182;28;20223;-77
2023/11/28 08:53:08;;;;;;;4.00;3.47;;;5.00;99.90;;;;;;10291593;28;20192;-77
2023/11/28 08:58:10;;;;;;;5.43;5.13;;;5.00;99.90;;;;;;10273756;28;20274;-77
2023/11/28 09:03:14;;;;;;;4.93;4.73;;;5.00;99.90;;;;;;10305017;28;20282;-77
2023/11/28 09:08:17;;;;;;;3.37;3.27;;;5.00;99.90;;;;;;10327049;23;20580;-76
2023/11/28 09:13:20;;;;;;;4.07;3.87;;;5.00;99.90;;;;;;10303411;28;20249;-76
2023/11/28 09:18:23;;;;;;;4.87;4.67;;;5.00;99.90;;;;;;10292945;28;20289;-76
2023/11/28 09:23:26;;;;;;;5.00;4.80;;;5.00;99.90;;;;;;10305640;28;20271;-76
2023/11/28 09:28:28;;;;;;;3.83;3.73;;;4.90;99.90;;;;;;10309606;28;20712;-76
2023/11/28 09:33:32;;;;;;;4.67;4.50;;;4.90;99.90;;;;;;10315119;28;20219;-76
2023/11/28 09:38:34;;;;;;;4.90;4.70;;;4.80;99.90;;;;;;10309962;28;20747;-76
2023/11/28 09:43:38;;;;;;;5.03;4.83;;;4.80;99.90;;;;;;10315110;28;20222;-76
2023/11/28 09:48:43;;;;;;;4.93;4.73;;;4.80;99.90;;;;;;10270448;28;20252;-76
2023/11/28 09:53:48;;;;;;;4.37;4.23;;;4.80;99.90;;;;;;10283390;28;20199;-76
2023/11/28 09:58:55;;;;;;;4.60;4.40;;;4.80;99.90;;;;;;10313062;28;20230;-76
2023/11/28 10:04:00;;;;;;;4.83;4.63;;;4.70;99.90;;;;;;10292268;28;20287;-76
2023/11/28 10:09:04;;;;;;;4.07;3.87;;;4.70;99.90;;;;;;10290644;28;20224;-75
2023/11/28 10:14:07;;;;;;;4.90;4.70;;;4.70;99.90;;;;;;10250427;28;20259;-76
2023/11/28 10:19:11;;;;;;;4.20;4.00;;;4.70;99.90;;;;;;10271490;28;20263;-75
2023/11/28 10:24:13;;;;;;;4.53;4.33;;;4.80;99.90;;;;;;10269405;28;20697;-75
2023/11/28 10:29:19;;;;;;;5.10;4.90;;;4.70;99.90;;;;;;10268112;28;20224;-76
2023/11/28 10:34:23;;;;;;;5.80;5.50;;;4.70;99.90;;;;;;10282235;28;20590;-76
2023/11/28 10:39:27;;;;;;;5.83;5.50;;;4.80;99.90;;;;;;10282757;28;20212;-75
2023/11/28 10:44:31;;;;;;;5.57;5.37;;;4.80;99.90;;;;;;10285193;28;20254;-75
2023/11/28 10:49:35;;;;;;;6.50;5.93;;;4.80;99.90;;;;;;10282535;28;20271;-75
2023/11/28 10:54:40;;;;;;;6.23;5.93;;;4.80;99.90;;;;;;10273345;28;20252;-75
2023/11/28 10:59:44;;;;;;;5.90;5.60;;;4.80;99.90;;;;;;10276138;28;20742;-75
2023/11/28 11:04:48;;;;;;;5.73;5.53;;;4.80;99.90;;;;;;10269198;28;20200;-75
2023/11/28 11:09:51;;;;;;;6.10;5.80;;;4.70;99.90;;;;;;10270498;28;20235;-75
2023/11/28 11:15:00;;;;;;;7.00;6.50;;;4.60;99.90;;;;;;10270996;28;20328;-75
2023/11/28 11:20:08;;;;;;;6.80;6.40;;;4.60;99.90;;;;;;10267034;28;20215;-75
2023/11/28 11:25:11;;;;;;;7.27;6.87;;;4.60;99.90;;;;;;10244112;28;20192;-75
2023/11/28 11:30:16;;;;;;;5.80;5.50;;;4.60;99.90;;;;;;10275713;28;20604;-75
2023/11/28 11:35:20;;;;;;;5.60;5.40;;;4.60;99.90;;;;;;10283079;28;20204;-75
2023/11/28 11:40:22;;;;;;;5.90;5.60;;;4.50;99.90;;;;;;10293570;28;20228;-76
2023/11/28 11:45:28;;;;;;;6.80;6.40;;;4.50;99.90;;;;;;10252163;28;20263;-75
2023/11/28 11:50:32;;;;;;;6.73;6.23;;;4.60;99.90;;;;;;10297334;28;20219;-76
2023/11/28 11:55:34;;;;;;;5.73;5.43;;;4.60;99.90;;;;;;10287806;28;20196;-75
2023/11/28 12:00:37;;;;;;;6.60;6.30;;;4.60;99.90;;;;;;10277580;28;20236;-76
2023/11/28 12:05:50;;;;;;;5.40;5.20;;;4.70;99.90;;;;;;10283209;28;20204;-75
2023/11/28 12:11:04;;;;;;;6.10;5.70;;;4.70;99.90;;;;;;10284013;28;20283;-75
2023/11/28 12:16:07;;;;;;;6.00;5.30;;;4.70;99.90;;;;;;10265747;28;20797;-75
2023/11/28 12:21:11;;;;;;;6.57;5.97;;;4.70;99.90;;;;;;10290953;28;20239;-75
2023/11/28 12:26:14;;;;;;;5.77;5.30;;;4.70;99.90;;;;;;10293828;28;20212;-75
2023/11/28 12:31:17;;;;;;;6.33;5.93;;;4.70;99.90;;;;;;10285131;28;20282;-76
2023/11/28 12:36:25;;;;;;;6.90;6.50;;;4.70;99.90;;;;;;10253703;28;20192;-76
2023/11/28 12:41:35;;;;;;;7.57;7.03;;;4.80;99.90;;;;;;10262889;28;20232;-77
2023/11/28 12:46:39;;;;;;;8.73;8.13;;;4.70;99.90;;;;;;10277894;28;20625;-76
2023/11/28 12:51:43;;;;;;;9.00;8.50;;;4.70;99.90;;;;;;10270032;28;20314;-76
2023/11/28 12:56:52;;;;;;;8.90;8.20;;;4.70;99.90;;;;;;10275826;28;20192;-76
2023/11/28 13:01:54;;;;;;;7.67;7.17;;;4.70;99.90;;;;;;10289046;28;20227;-76
2023/11/28 13:06:58;;;;;;;8.40;7.90;;;4.70;99.90;;;;;;10278675;28;20203;-75
2023/11/28 13:12:01;;;;;;;8.77;8.17;;;4.70;99.90;;;;;;10282436;28;20656;-76
2023/11/28 13:17:03;;;;;;;9.00;8.40;;;4.70;99.90;;;;;;10301347;28;20196;-76
2023/11/28 13:22:07;;;;;;;9.13;8.53;;;4.70;99.90;;;;;;10284349;28;20227;-76
2023/11/28 13:27:10;;;;;;;8.30;7.80;;;4.70;99.90;;;;;;10302037;28;20266;-76
2023/11/28 13:32:12;;;;;;;8.30;7.80;;;4.70;99.90;;;;;;10285661;28;20615;-76
2023/11/28 13:37:18;;;;;;;8.20;7.43;;;4.80;99.90;;;;;;10301832;28;20223;-76
2023/11/28 13:42:20;;;;;;;7.67;7.17;;;4.80;99.90;;;;;;10268234;28;20656;-76
2023/11/28 13:47:23;;;;;;;8.37;7.87;;;4.80;99.90;;;;;;10303415;28;20609;-76
2023/11/28 13:52:27;;;;;;;7.60;7.10;;;4.80;99.90;;;;;;10285156;28;20200;-76
2023/11/28 13:57:29;;;;;;;7.30;6.80;;;4.70;99.90;;;;;;10304164;28;20263;-76
2023/11/28 14:02:31;;;;;;;8.30;7.73;;;4.70;99.90;;;;;;10285131;28;20220;-76
2023/11/28 14:07:35;;;;;;;9.57;8.60;;;4.80;99.90;;;;;;10304679;28;20228;-75
2023/11/28 14:12:38;;;;;;;7.77;7.27;;;4.80;99.90;;;;;;10289086;28;20200;-76
2023/11/28 14:17:41;;;;;;;8.87;8.27;;;4.70;99.90;;;;;;10312560;28;20224;-76
2023/11/28 14:22:46;;;;;;;8.87;8.27;;;4.70;99.90;;;;;;10290575;28;20223;-76
2023/11/28 14:27:49;;;;;;;8.70;8.20;;;4.70;99.90;;;;;;10312809;28;20219;-76
2023/11/28 14:32:53;;;;;;;8.73;8.13;;;4.70;99.90;;;;;;10291463;28;20192;-76
2023/11/28 14:37:57;;;;;;;9.50;8.87;;;4.70;99.90;;;;;;10313241;28;20232;-75
2023/11/28 14:43:00;;;;;;;9.20;8.60;;;4.70;99.90;;;;;;10291331;28;20290;-75
2023/11/28 14:48:02;;;;;;;8.90;8.27;;;4.70;99.90;;;;;;10313410;28;20228;-75
2023/11/28 14:53:06;;;;;;;9.27;8.67;;;4.70;99.90;;;;;;10291047;28;20243;-75
2023/11/28 14:58:08;;;;;;;9.77;9.10;;;4.70;99.90;;;;;;10314025;28;20216;-75
2023/11/28 15:03:10;;;;;;;8.33;7.73;;;4.80;99.90;;;;;;10290967;28;20216;-76
2023/11/28 15:08:14;;;;;;;9.30;8.60;;;4.80;99.90;;;;;;10344765;23;20238;-78
2023/11/28 15:13:17;;;;;;;9.40;8.70;;;4.80;99.90;;;;;;10311497;28;20538;-78
2023/11/28 15:18:19;;;;;;;9.03;8.40;;;4.90;99.90;;;;;;10323067;28;20239;-79
2023/11/28 15:23:23;;;;;;;9.50;8.80;;;4.90;99.90;;;;;;10303597;28;20281;-78
2023/11/28 15:28:25;;;;;;;9.37;8.77;;;4.90;99.90;;;;;;10290606;28;20212;-78
2023/11/28 15:33:28;;;;;;;8.60;8.00;;;4.90;99.90;;;;;;10305259;28;20246;-78
2023/11/28 15:38:31;;;;;;;9.13;8.50;;;4.90;99.90;;;;;;10307823;28;20266;-78
2023/11/28 15:43:34;;;;;;;9.17;8.47;;;4.90;99.90;;;;;;10307181;28;20528;-78
2023/11/28 15:48:36;;;;;;;8.53;7.93;;;4.90;99.90;;;;;;10310814;28;20250;-78
2023/11/28 15:53:40;;;;;;;8.40;7.80;;;4.80;99.90;;;;;;10306238;28;20582;-78
2023/11/28 15:58:42;;;;;;;8.27;7.67;;;4.90;99.90;;;;;;10305125;28;20227;-78
2023/11/28 16:03:45;;;;;;;8.90;8.30;;;4.90;99.90;;;;;;10287121;28;20234;-78
2023/11/28 16:08:49;;;;;;;9.23;8.47;;;4.90;99.90;;;;;;10303128;28;20269;-78
2023/11/28 16:13:51;;;;;;;10.27;9.47;;;4.90;99.90;;;;;;10303076;28;20195;-78
2023/11/28 16:18:55;;;;;;;10.07;9.37;;;4.80;99.90;;;;;;10302963;28;20215;-78
2023/11/28 16:23:58;;;;;;;10.80;10.00;;;4.70;99.90;;;;;;10284244;28;20265;-78
2023/11/28 16:29:01;;;;;;;13.17;11.97;;;4.70;99.90;;;;;;10302079;28;20214;-79
2023/11/28 16:34:03;;;;;;;12.97;11.97;;;4.60;99.90;;;;;;10283007;28;20199;-78
2023/11/28 16:39:07;;;;;;;13.20;12.20;;;4.60;99.90;;;;;;10308310;28;20565;-78
2023/11/28 16:44:10;;;;;;;14.40;13.10;;;4.60;99.90;;;;;;10300098;28;20226;-78
2023/11/28 16:49:12;;;;;;;13.00;11.90;;;4.50;99.90;;;;;;10299764;28;20223;-78
2023/11/28 16:54:16;;;;;;;13.30;12.30;;;4.50;99.90;;;;;;10297474;28;20689;-78
2023/11/28 16:59:19;;;;;;;14.53;13.33;;;4.50;99.90;;;;;;10298177;28;20227;-78
2023/11/28 17:04:21;;;;;;;14.83;13.63;;;4.50;99.90;;;;;;10279887;28;20235;-78
2023/11/28 17:09:25;;;;;;;13.47;12.37;;;4.50;99.90;;;;;;10307856;28;20235;-78
2023/11/28 17:14:29;;;;;;;13.07;12.07;;;4.50;99.90;;;;;;10321342;28;20199;-78
2023/11/28 17:19:32;;;;;;;12.57;11.57;;;4.40;99.90;;;;;;10339186;28;20226;-78
2023/11/28 17:24:36;;;;;;;14.50;13.30;;;4.40;99.90;;;;;;10294137;28;20230;-78
2023/11/28 17:29:38;;;;;;;13.00;11.90;;;4.40;99.90;;;;;;10294899;28;20211;-79
2023/11/28 17:34:43;;;;;;;13.17;12.07;;;4.40;99.90;;;;;;10293651;28;20571;-78
2023/11/28 17:39:46;;;;;;;11.40;10.47;;;4.40;99.90;;;;;;10313411;28;20224;-78
2023/11/28 17:44:49;;;;;;;12.47;11.47;;;4.30;99.90;;;;;;10325876;28;20223;-78
2023/11/28 17:49:51;;;;;;;11.90;11.00;;;4.30;99.90;;;;;;10301759;28;20218;-77
2023/11/28 17:54:55;;;;;;;11.90;10.90;;;4.30;99.90;;;;;;10354440;28;20688;-78
2023/11/28 17:59:57;;;;;;;13.10;12.07;;;4.20;99.90;;;;;;10323144;28;20286;-79
2023/11/28 18:05:00;;;;;;;11.03;10.13;;;4.20;99.90;;;;;;10318986;28;20219;-77
2023/11/28 18:10:05;;;;;;;11.00;10.10;;;4.20;99.90;;;;;;10331673;28;20617;-77
2023/11/28 18:15:08;;;;;;;10.30;9.40;;;4.20;99.90;;;;;;10325052;28;20203;-77
2023/11/28 18:20:11;;;;;;;10.83;10.03;;;4.20;99.90;;;;;;10324520;28;20650;-77
2023/11/28 18:25:15;;;;;;;10.33;9.47;;;4.20;99.90;;;;;;10323932;28;20230;-77
2023/11/28 18:30:18;;;;;;;9.87;8.97;;;4.20;99.90;;;;;;10330532;28;20290;-76
2023/11/28 18:35:21;;;;;;;8.87;8.27;;;4.20;99.90;;;;;;10325869;28;20199;-77
2023/11/28 18:40:25;;;;;;;10.60;9.70;;;4.20;99.90;;;;;;10308308;28;20281;-77
2023/11/28 18:45:27;;;;;;;9.97;8.97;;;4.10;99.90;;;;;;10293838;28;20235;-77
2023/11/28 18:50:31;;;;;;;8.03;7.43;;;4.10;99.90;;;;;;10324460;28;20619;-77
2023/11/28 18:55:34;;;;;;;8.00;7.40;;;4.00;99.90;;;;;;10341366;28;20215;-77
2023/11/28 19:00:37;;;;;;;9.27;8.50;;;3.90;99.90;;;;;;10353684;28;20618;-77
2023/11/28 19:05:39;;;;;;;8.83;8.00;;;3.90;99.90;;;;;;10332998;28;20237;-77
2023/11/28 19:10:43;;;;;;;8.33;7.73;;;3.80;99.90;;;;;;10347710;28;20283;-77
2023/11/28 19:15:45;;;;;;;8.50;7.80;;;3.80;99.90;;;;;;10325719;28;20657;-77
2023/11/28 19:20:48;;;;;;;9.10;8.40;;;3.80;99.90;;;;;;10348878;28;20223;-77
2023/11/28 19:25:51;;;;;;;9.40;8.50;;;3.70;99.90;;;;;;10315639;28;20676;-78
2023/11/28 19:30:54;;;;;;;9.77;8.97;;;3.70;99.90;;;;;;10327297;28;20225;-78
2023/11/28 19:35:59;;;;;;;8.43;7.83;;;3.70;99.90;;;;;;10293540;28;20188;-77
2023/11/28 19:41:04;;;;;;;8.60;7.90;;;3.70;99.90;;;;;;10308401;28;20603;-77
2023/11/28 19:46:07;;;;;;;8.17;7.57;;;3.80;99.90;;;;;;10313442;28;20696;-78
2023/11/28 19:51:11;;;;;;;7.60;6.97;;;3.80;99.90;;;;;;10298761;28;20568;-78
2023/11/28 19:56:16;;;;;;;8.37;7.70;;;3.70;99.90;;;;;;10296758;28;20200;-78
2023/11/28 20:01:18;;;;;;;7.63;7.03;;;3.70;99.90;;;;;;10285951;28;20220;-78
2023/11/28 20:06:22;;;;;;;8.23;7.63;;;3.60;99.90;;;;;;10295290;28;20238;-79
2023/11/28 20:11:26;;;;;;;8.20;7.60;;;3.60;99.90;;;;;;10320240;28;20243;-80
2023/11/28 20:16:29;;;;;;;8.43;7.73;;;3.50;99.90;;;;;;10289347;28;20207;-77
2023/11/28 20:21:31;;;;;;;8.00;7.40;;;3.60;99.90;;;;;;10318887;28;20223;-77
2023/11/28 20:26:35;;;;;;;8.10;7.43;;;3.50;99.90;;;;;;10292247;28;20229;-76
2023/11/28 20:31:37;;;;;;;8.73;8.10;;;3.40;99.90;;;;;;10316375;28;20314;-77
2023/11/28 20:36:39;;;;;;;8.10;7.50;;;3.40;99.90;;;;;;10298721;28;20203;-77
2023/11/28 20:41:43;;;;;;;9.20;8.30;;;3.40;99.90;;;;;;10278810;28;20216;-77
2023/11/28 20:46:46;;;;;;;9.93;8.90;;;3.40;99.90;;;;;;10300069;28;20702;-77
2023/11/28 20:51:48;;;;;;;9.70;8.90;;;3.50;99.90;;;;;;10285423;28;20263;-78
2023/11/28 20:56:52;;;;;;;8.53;7.83;;;3.50;99.90;;;;;;10287980;28;21400;-78
2023/11/28 21:01:54;;;;;;;8.73;8.03;;;3.60;99.90;;;;;;10304948;28;20294;-76
2023/11/28 21:06:57;;;;;;;9.30;8.57;;;3.60;99.90;;;;;;10308470;28;20231;-77
2023/11/28 21:12:02;;;;;;;9.33;8.53;;;3.70;99.90;;;;;;10309195;28;20683;-78
2023/11/28 21:17:05;;;;;;;8.13;7.53;;;3.70;99.90;;;;;;10288138;28;20260;-77
2023/11/28 21:22:07;;;;;;;8.37;7.67;;;3.70;99.90;;;;;;10308794;28;20620;-77
2023/11/28 21:27:11;;;;;;;8.87;8.00;;;3.80;99.90;;;;;;10314947;28;20724;-78
2023/11/28 21:32:13;;;;;;;8.73;8.03;;;3.80;99.90;;;;;;10313297;28;20231;-76
2023/11/28 21:37:16;;;;;;;8.03;7.40;;;3.80;99.90;;;;;;10310055;28;20191;-76
2023/11/28 21:42:20;;;;;;;9.13;8.33;;;3.70;99.90;;;;;;10317284;28;20700;-77
2023/11/28 21:47:23;;;;;;;9.17;8.37;;;3.70;99.90;;;;;;10319097;28;20226;-78
2023/11/28 21:52:26;;;;;;;9.00;8.27;;;3.60;99.90;;;;;;10304910;28;20195;-78
2023/11/28 21:57:30;;;;;;;10.67;9.67;;;3.70;99.90;;;;;;10292184;28;20199;-78
2023/11/28 22:02:33;;;;;;;9.80;8.80;;;3.70;99.90;;;;;;10308521;28;20204;-78
2023/11/28 22:07:35;;;;;;;10.50;9.60;;;3.70;99.90;;;;;;10307530;28;20230;-78
2023/11/28 22:12:41;;;;;;;9.67;8.87;;;3.70;99.90;;;;;;10328544;28;20230;-78
2023/11/28 22:17:44;;;;;;;11.80;10.83;;;3.80;99.90;;;;;;10329181;28;20231;-79
2023/11/28 22:22:46;;;;;;;11.30;10.30;;;3.80;99.90;;;;;;10334670;28;20195;-78
2023/11/28 22:27:50;;;;;;;10.03;9.33;;;3.80;99.90;;;;;;10326910;28;20611;-78
2023/11/28 22:32:52;;;;;;;10.80;10.00;;;3.70;99.90;;;;;;10326285;28;20203;-78
2023/11/28 22:37:56;;;;;;;11.87;10.87;;;3.70;99.90;;;;;;10331356;28;20301;-77
2023/11/28 22:43:00;;;;;;;11.57;10.67;;;3.70;99.90;;;;;;10329736;28;20198;-77
2023/11/28 22:48:02;;;;;;;11.10;10.20;;;3.80;99.90;;;;;;10329145;28;20226;-78
2023/11/28 22:53:05;;;;;;;12.17;11.03;;;3.80;99.90;;;;;;10329823;28;20415;-78
2023/11/28 22:58:08;;;;;;;11.07;10.17;;;3.80;99.90;;;;;;10331294;28;20704;-78
2023/11/28 23:03:11;;;;;;;10.27;9.37;;;3.80;99.90;;;;;;10332219;28;20257;-77
2023/11/28 23:08:14;;;;;;;9.60;8.80;;;3.80;99.90;;;;;;10334622;28;20715;-78
2023/11/28 23:13:18;;;;;;;10.00;9.20;;;3.80;99.90;;;;;;10332464;28;20743;-77
2023/11/28 23:18:21;;;;;;;9.47;8.70;;;3.70;99.90;;;;;;10332293;28;20223;-78
2023/11/28 23:23:23;;;;;;;10.70;9.80;;;3.80;99.90;;;;;;10332361;28;20211;-77
2023/11/28 23:28:27;;;;;;;11.47;10.50;;;3.70;99.90;;;;;;10323186;28;20223;-77
2023/11/28 23:33:29;;;;;;;11.10;10.10;;;3.70;99.90;;;;;;10324779;28;20207;-78
2023/11/28 23:38:32;;;;;;;12.13;11.10;;;3.70;99.90;;;;;;10307596;28;20684;-78
2023/11/28 23:43:35;;;;;;;11.33;10.30;;;3.80;99.90;;;;;;10326174;28;20729;-77
2023/11/28 23:48:38;;;;;;;10.80;9.90;;;3.70;99.90;;;;;;10326322;28;20285;-78
2023/11/28 23:53:40;;;;;;;11.57;10.67;;;3.70;99.90;;;;;;10327482;28;20212;-78
2023/11/28 23:58:44;;;;;;;10.97;10.13;;;3.70;99.90;;;;;;10327224;28;20219;-77
